Latest Weather Observations for Tamworth Airport

IDN60801

Issued at 6:32 pm EDT Sunday 15 December 2019 (issued every 10 minutes, with the page automatically refreshed every 10 minutes)

About weather observations | Map of weather stations | Latest weather observations for NSW | Other Formats
Station Details ID: 055325 Name: TAMWORTH AIRPORT AWS Lat: -31.07 Lon: 150.84 Height: 394.9 m
Data from the previous 72 hours. | See also: Recent months at Tamworth Airport
Date/Time
EDT
Temp
°C
App
Temp
°C
Dew
Point
°C
Rel
Hum
%
Delta-T
°C
Wind Press
QNH
hPa
Press
MSL
hPa
Rain since
9am
mm
Dir  Spd
km/h
Gust
km/h
Spd
kts
Gust
kts
15/06:30pm 35.1 28.8 -1.1 10 17.9 WSW 22 35 12 19 1007.5 1005.4 0.0
15/06:00pm 35.3 28.4 -2.3 9 18.3 W 24 33 13 18 1007.2 1005.2 0.0
15/05:30pm 34.8 26.9 -4.3 8 18.3 WSW 28 44 15 24 1007.2 1005.2 0.0
15/05:00pm 36.2 29.0 -5.0 7 19.3 WSW 24 37 13 20 1007.1 1005.1 0.0
15/04:30pm 36.3 30.5 -0.2 10 18.4 W 20 32 11 17 1007.5 1005.4 0.0
15/04:00pm 34.9 30.1 0.1 11 17.6 WNW 15 28 8 15 1007.7 1005.6 0.0
15/03:30pm 36.2 30.8 2.3 12 17.8 W 20 37 11 20 1008.1 1006.0 0.0
15/03:00pm 34.2 28.9 2.9 14 16.4 WNW 20 30 11 16 1008.6 1006.6 0.0
15/02:30pm 34.4 29.7 3.1 14 16.5 W 17 39 9 21 1008.7 1006.7 0.0
15/02:00pm 34.0 29.8 5.5 17 15.6 W 17 28 9 15 1008.9 1006.9 0.0
15/01:30pm 33.6 28.9 5.2 17 15.4 W 19 32 10 17 1009.4 1007.4 0.0
15/01:00pm 33.5 29.0 4.2 16 15.6 W 17 33 9 18 1009.7 1007.7 0.0
15/12:30pm 32.1 28.9 8.4 23 13.4 NW 15 30 8 16 1009.9 1007.9 0.0
15/12:00pm 31.6 29.4 10.9 28 12.2 NW 13 24 7 13 1010.4 1008.3 0.0
15/11:30am 30.7 28.8 10.6 29 11.7 W 11 26 6 14 1010.8 1008.8 0.0
15/11:00am 30.1 28.5 10.1 29 11.5 W 9 17 5 9 1011.0 1009.0 0.0
15/10:30am 29.7 29.0 14.3 39 9.5 WNW 11 17 6 9 1011.3 1009.3 0.0
15/10:00am 28.0 27.8 14.6 44 8.2 NW 9 17 5 9 1011.5 1009.5 0.0
15/09:30am 26.8 26.4 14.2 46 7.6 NNE 9 13 5 7 1011.5 1009.5 0.0
15/09:00am 26.6 26.9 15.0 49 7.1 ENE 7 13 4 7 1011.3 1009.3 0.0
15/08:30am 25.3 25.4 15.6 55 6.0 ESE 9 15 5 8 1011.9 1009.9 0.0
15/08:00am 24.6 23.9 15.5 57 5.6 ESE 13 17 7 9 1011.8 1009.8 0.0
15/07:30am 24.1 23.6 15.9 60 5.1 SSE 13 17 7 9 1011.7 1009.7 0.0
15/07:00am 22.1 22.5 15.2 65 4.2 ESE 7 11 4 6 1011.3 1009.3 0.0
15/06:30am 20.6 20.1 14.9 70 3.4 SE 11 15 6 8 1011.1 1009.1 0.0
15/06:00am 19.9 17.7 14.5 71 3.2 S 19 22 10 12 1010.9 1008.9 0.0
15/05:30am 19.5 17.6 14.3 72 3.1 S 17 19 9 10 1010.6 1008.5 0.0
15/05:00am 19.7 18.2 14.3 71 3.2 S 15 17 8 9 1010.4 1008.3 0.0
15/04:30am 19.7 18.5 14.1 70 3.3 SSE 13 17 7 9 1010.2 1008.1 0.0
15/04:00am 20.4 18.0 13.8 66 3.9 SSE 19 22 10 12 1010.1 1008.0 0.0
15/03:30am 20.9 18.4 13.6 63 4.3 SSE 19 24 10 13 1010.1 1008.0 0.0
15/03:00am 21.1 18.9 13.3 61 4.6 SSE 17 20 9 11 1010.1 1008.0 0.0
15/02:30am 22.0 19.4 12.0 53 5.7 SSE 17 20 9 11 1010.3 1008.2 0.0
15/02:00am 22.8 19.6 11.8 50 6.3 S 20 24 11 13 1010.2 1008.1 0.0
15/01:30am 23.4 19.9 7.1 35 8.6 S 15 19 8 10 1010.1 1008.0 0.0
15/01:00am 20.5 16.5 2.8 31 8.5 SW 13 15 7 8 1010.1 1008.0 0.0
15/12:30am 22.5 18.9 0.9 24 10.1 S 9 13 5 7 1010.3 1008.2 0.0
15/12:00am 23.5 21.1 2.4 25 10.3 ESE 4 7 2 4 1010.3 1008.2 0.0
 
Date/Time
EDT
Temp
°C
App
Temp
°C
Dew
Point
°C
Rel
Hum
%
Delta-T
°C
Wind Press
QNH
hPa
Press
MSL
hPa
Rain since
9am
mm
Dir  Spd
km/h
Gust
km/h
Spd
kts
Gust
kts
14/11:30pm 23.3 21.3 2.2 25 10.2 NE 2 6 1 3 1010.2 1008.1 0.0
14/11:00pm 24.5 22.6 2.6 24 10.8 ESE 2 7 1 4 1009.9 1007.9 0.0
14/10:30pm 24.1 21.1 1.1 22 10.9 S 6 7 3 4 1009.7 1007.7 0.0
14/10:00pm 26.1 22.4 2.1 21 11.8 SSW 11 13 6 7 1009.5 1007.5 0.0
14/09:30pm 26.8 22.2 1.3 19 12.4 WSW 15 17 8 9 1009.4 1007.4 0.0
14/09:00pm 28.3 23.0 1.7 18 13.2 WSW 19 22 10 12 1009.1 1007.1 0.0
14/08:30pm 29.6 24.0 1.1 16 14.1 WSW 20 28 11 15 1008.8 1006.8 0.0
14/08:00pm 30.0 25.9 -0.4 14 14.7 WSW 11 19 6 10 1008.5 1006.5 0.0
14/07:30pm 32.1 30.3 1.3 14 15.5 CALM 0 6 0 3 1008.1 1006.0 0.0
14/07:00pm 32.5 29.4 1.6 14 15.7 N 7 11 4 6 1007.7 1005.6 0.0
14/06:30pm 33.1 29.6 1.0 13 16.2 W 9 15 5 8 1007.6 1005.5 0.0
14/06:00pm 33.5 29.6 1.3 13 16.4 WSW 11 20 6 11 1007.6 1005.5 0.0
14/05:30pm 33.8 30.0 1.6 13 16.5 SW 11 20 6 11 1007.8 1005.7 0.0
14/05:00pm 33.6 29.9 2.4 14 16.2 SSW 11 20 6 11 1007.9 1005.8 0.0
14/04:30pm 33.1 29.5 3.0 15 15.7 SSW 11 26 6 14 1008.2 1006.1 0.0
14/04:00pm 33.4 29.7 4.2 16 15.6 W 13 28 7 15 1008.5 1006.5 0.0
14/03:30pm 33.7 29.0 5.3 17 15.4 SW 19 32 10 17 1008.7 1006.7 0.0
14/03:00pm 32.5 27.8 5.1 18 14.8 WNW 19 32 10 17 1009.2 1007.2 0.0
14/02:30pm 32.4 27.8 5.8 19 14.5 WNW 19 35 10 19 1009.4 1007.4 0.0
14/02:00pm 33.1 28.3 4.8 17 15.2 SW 19 30 10 16 1009.8 1007.8 0.0
14/01:30pm 31.4 28.0 4.2 18 14.3 NNW 11 20 6 11 1010.1 1008.0 0.0
14/01:00pm 30.9 26.6 8.0 24 12.8 NW 20 30 11 16 1010.7 1008.7 0.0
14/12:30pm 30.4 28.2 9.3 27 12.0 W 11 24 6 13 1011.1 1009.1 0.0
14/12:00pm 29.2 26.1 8.8 28 11.5 NNW 15 24 8 13 1011.4 1009.4 0.0
14/11:30am 27.9 25.5 10.1 33 10.2 NW 13 24 7 13 1011.6 1009.6 0.0
14/11:00am 27.3 26.1 11.7 37 9.1 W 9 17 5 9 1011.8 1009.8 0.0
14/10:30am 26.0 25.2 12.8 44 7.8 NNW 9 15 5 8 1011.9 1009.9 0.0
14/10:00am 26.0 25.9 13.8 47 7.3 WNW 7 15 4 8 1012.2 1010.2 0.0
14/09:30am 24.6 24.8 14.7 54 6.0 NW 7 11 4 6 1012.3 1010.3 0.0
14/09:00am 24.1 24.3 14.8 56 5.6 ESE 7 11 4 6 1012.5 1010.5 0.0
14/08:30am 23.2 23.5 14.5 58 5.2 SE 6 9 3 5 1012.6 1010.6 0.0
14/08:00am 22.6 23.5 15.0 62 4.6 E 4 9 2 5 1012.4 1010.4 0.0
14/07:30am 20.8 20.9 14.5 67 3.7 SE 7 11 4 6 1012.2 1010.2 0.0
14/07:00am 19.3 19.5 14.6 74 2.8 SSE 7 9 4 5 1012.0 1010.0 0.0
14/06:30am 17.5 16.8 14.4 82 1.8 SSE 11 15 6 8 1011.9 1009.9 0.0
14/06:00am 16.2 15.9 13.3 83 1.7 SE 7 11 4 6 1011.6 1009.6 0.0
14/05:30am 16.5 15.9 13.4 82 1.8 SSE 9 13 5 7 1011.5 1009.5 0.0
14/05:00am 16.6 15.2 13.3 81 1.9 SSE 13 15 7 8 1011.4 1009.4 0.0
14/04:30am 16.7 15.1 12.8 78 2.2 SSE 13 17 7 9 1011.3 1009.3 0.0
14/04:00am 16.9 14.9 12.8 77 2.3 SSE 15 17 8 9 1011.1 1009.1 0.0
14/03:30am 17.2 15.3 12.9 76 2.4 SSE 15 15 8 8 1011.1 1009.1 0.0
14/03:00am 18.2 16.8 13.5 74 2.7 SSE 13 15 7 8 1011.3 1009.3 0.0
14/02:30am 19.2 17.7 14.2 73 2.9 SE 15 17 8 9 1011.2 1009.2 0.0
14/02:00am 19.4 17.5 14.2 72 3.1 SE 17 22 9 12 1011.5 1009.5 0.0
14/01:30am 19.3 17.8 14.3 73 2.9 SSE 15 19 8 10 1011.8 1009.8 0.0
14/01:00am 19.7 18.7 14.5 72 3.1 S 13 17 7 9 1011.9 1009.9 0.0
14/12:30am 19.7 18.9 14.1 70 3.3 S 11 15 6 8 1012.1 1010.1 0.0
14/12:00am 20.9 20.5 14.1 65 4.0 ESE 9 15 5 8 1012.1 1010.1 0.0
 
Date/Time
EDT
Temp
°C
App
Temp
°C
Dew
Point
°C
Rel
Hum
%
Delta-T
°C
Wind Press
QNH
hPa
Press
MSL
hPa
Rain since
9am
mm
Dir  Spd
km/h
Gust
km/h
Spd
kts
Gust
kts
13/11:30pm 21.1 20.8 14.5 66 3.9 ESE 9 11 5 6 1012.1 1010.1 0.0
13/11:00pm 22.6 21.4 15.0 62 4.6 ESE 15 20 8 11 1012.1 1010.1 0.0
13/10:30pm 21.9 20.8 14.3 62 4.5 SE 13 19 7 10 1011.9 1009.9 0.0
13/10:00pm 22.5 19.8 14.6 61 4.7 SE 22 26 12 14 1011.8 1009.8 0.0
13/09:30pm 23.1 19.3 14.7 59 5.1 SE 28 33 15 18 1011.4 1009.4 0.0
13/09:00pm 23.7 20.2 14.4 56 5.6 SE 26 32 14 17 1010.9 1008.9 0.0
13/08:30pm 25.0 21.9 14.5 52 6.4 SE 24 32 13 17 1010.3 1008.2 0.0
13/08:00pm 25.8 21.4 14.0 48 7.1 SE 30 35 16 19 1009.9 1007.9 0.0
13/07:30pm 27.1 21.9 12.7 41 8.5 SE 32 43 17 23 1009.6 1007.6 0.0
13/07:00pm 28.4 22.5 12.3 37 9.6 SE 35 43 19 23 1008.9 1006.9 0.0
13/06:30pm 30.5 25.5 11.0 30 11.4 SSE 28 37 15 20 1008.4 1006.4 0.0
13/06:00pm 31.8 28.8 7.5 22 13.6 SSE 13 20 7 11 1008.0 1005.9 0.0
13/05:30pm 31.9 27.2 6.2 20 14.0 W 20 30 11 16 1007.9 1005.8 0.0
13/05:00pm 32.6 28.2 6.7 20 14.3 SW 19 26 10 14 1007.9 1005.8 0.0
13/04:30pm 32.8 27.4 6.2 19 14.6 W 24 35 13 19 1008.3 1006.2 0.0
13/04:00pm 33.7 29.0 7.6 20 14.7 WSW 22 46 12 25 1008.6 1006.6 0.0
13/03:30pm 33.5 29.7 7.5 20 14.6 WSW 17 32 9 17 1008.8 1006.8 0.0
13/03:00pm 32.4 29.4 9.2 24 13.3 WSW 15 24 8 13 1009.0 1007.0 0.0
13/02:30pm 31.4 29.2 10.7 28 12.1 WSW 13 30 7 16 1009.3 1007.3 0.0
13/02:00pm 31.4 28.6 11.2 29 11.9 WNW 17 26 9 14 1009.6 1007.6 0.0
13/01:30pm 30.9 28.2 11.8 31 11.3 WNW 17 26 9 14 1010.1 1008.0 0.0
13/01:00pm 30.8 29.6 14.0 36 10.3 W 13 20 7 11 1010.4 1008.3 0.0
13/12:30pm 30.5 29.4 14.2 37 10.0 W 13 20 7 11 1011.0 1009.0 0.0
13/12:00pm 29.2 29.0 14.6 41 9.0 NNW 9 15 5 8 1011.2 1009.2 0.0
13/11:30am 27.9 27.9 15.2 46 7.9 SW 9 20 5 11 1011.6 1009.6 0.0
13/11:00am 28.5 29.2 16.1 47 7.8 SW 7 13 4 7 1011.9 1009.9 0.0
13/10:30am 26.7 27.3 15.7 51 6.8 S 7 17 4 9 1012.3 1010.3 0.0
13/10:00am 26.5 27.3 15.8 51 6.6 SSW 6 15 3 8 1012.3 1010.3 0.0
13/09:30am 26.3 26.2 16.0 53 6.4 SSE 11 20 6 11 1012.3 1010.3 0.0
13/09:00am 26.5 26.8 16.1 52 6.5 ESE 9 17 5 9 1012.4 1010.4 0.0
13/08:30am 24.9 24.7 15.8 57 5.6 SE 11 20 6 11 1012.6 1010.6 0.0
13/08:00am 23.9 22.4 15.4 59 5.2 SE 17 22 9 12 1012.8 1010.7 0.0
13/07:30am 22.1 20.2 15.2 65 4.2 SSE 19 22 10 12 1012.6 1010.6 0.0
13/07:00am 20.2 18.0 15.0 72 3.1 SSE 20 26 11 14 1012.5 1010.5 0.0
13/06:30am 19.2 17.1 14.7 75 2.7 S 19 24 10 13 1012.3 1010.3 0.0
13/06:00am 19.0 17.2 14.5 75 2.7 SSE 17 20 9 11 1012.2 1010.2 0.0
13/05:30am 19.2 17.5 14.7 75 2.7 S 17 20 9 11 1012.2 1010.2 0.0
13/05:00am 19.5 18.0 15.2 76 2.6 SSE 17 20 9 11 1012.0 1010.0 0.0
13/04:30am 19.7 18.2 15.4 76 2.6 SSE 17 20 9 11 1011.9 1009.9 0.0
13/04:00am 20.0 18.5 15.4 75 2.8 SSE 17 19 9 10 1011.8 1009.8 0.0
13/03:30am 20.1 18.5 14.9 72 3.1 SSE 17 19 9 10 1011.8 1009.8 0.0
13/03:00am 20.7 19.5 15.0 70 3.4 SSE 15 17 8 9 1012.0 1010.0 0.0
13/02:30am 22.1 21.3 16.1 69 3.7 SE 15 19 8 10 1012.1 1010.1 0.0
13/02:00am 22.3 21.2 16.3 69 3.7 SE 17 20 9 11 1012.3 1010.3 0.0
13/01:30am 22.6 21.1 16.2 67 3.9 SE 19 24 10 13 1012.8 1010.7 0.0
13/01:00am 23.5 21.4 16.1 63 4.6 ESE 22 26 12 14 1012.9 1010.8 0.0
13/12:30am 23.5 22.7 16.1 63 4.6 ESE 15 17 8 9 1012.9 1010.8 0.0
13/12:00am 23.9 24.5 15.9 61 4.9 NE 7 15 4 8 1012.6 1010.6 0.0
 
Date/Time
EDT
Temp
°C
App
Temp
°C
Dew
Point
°C
Rel
Hum
%
Delta-T
°C
Wind Press
QNH
hPa
Press
MSL
hPa
Rain since
9am
mm
Dir  Spd
km/h
Gust
km/h
Spd
kts
Gust
kts
12/11:30pm 24.4 24.0 16.1 60 5.1 SE 13 20 7 11 1012.6 1010.6 0.0
12/11:00pm 24.8 23.1 16.2 58 5.3 ESE 20 33 11 18 1012.3 1010.3 0.0
12/10:30pm 24.9 21.6 16.1 58 5.5 ESE 28 35 15 19 1012.1 1010.1 0.0
12/10:00pm 25.6 23.5 16.2 56 5.9 E 22 33 12 18 1012.0 1010.0 0.0
12/09:30pm 26.1 22.1 16.1 54 6.2 ESE 32 39 17 21 1011.4 1009.4 0.0
12/09:00pm 26.7 21.3 16.0 52 6.7 E 39 54 21 29 1010.7 1008.7 0.0
12/08:59pm 26.8 21.4 16.1 52 6.7 E 39 54 21 29 1010.6 1008.5 0.0
12/08:30pm 28.2 24.5 16.1 47 7.6 ESE 30 35 16 19 1010.2 1008.1 0.0
12/08:00pm 30.0 24.9 13.7 37 9.9 SE 33 44 18 24 1009.2 1007.2 0.0
12/07:30pm 31.4 27.1 10.7 28 12.1 S 24 33 13 18 1008.6 1006.6 0.0
12/07:00pm 32.5 28.3 11.1 27 12.7 SSW 24 33 13 18 1008.2 1006.1 0.0

Other formats

Comma delimited format used in spreadsheet applications
http://www.bom.gov.au/fwo/IDN60801/IDN60801.95762.axf

JavaScript Object Notation format (JSON) in row-major order
http://www.bom.gov.au/fwo/IDN60801/IDN60801.95762.json

Data quality

Most of these data are generated automatically and are frequently updated. Quality checks on data are not normally performed. It is possible for incorrect values to appear. Refer to information at About Latest Weather Observations and please check the disclaimer before using these data.